Maersk Douglas — DCPL2 — position and weather

sailwx.info

Track history (hours):
 
Tides and Currents Weather Stations Pressure Air Temp Water Temp Dewpoint Dewpoint Depression Visibility Wind Speed Wind Dir Waves Ship Positions

Maersk Douglas

Last reported at 2016-Sep-29 16:34 UTC. Time now 2016-Sep-29 18:42 UTC.
Position N 53°33' E 009°55'.

Length 294.1 m; beam 32.2 m; draft 13.7 m.

Type: Tug. MMSI: 211710650.

Date/timePositionNaut miles runAvg speedWind from/ knotsBaromVisibWave heightAir tempDewpointWater temp
2016-Sep-29 16:34N 53°33' E 009°55'0 0.0
2016-Sep-29 15:34N 53°33' E 009°55'0 0.0
2016-Sep-29 14:33N 53°33' E 009°55'2 1.8
2016-Sep-29 13:34N 53°33' E 009°52'2 0.4
2016-Sep-29 08:34N 53°33' E 009°55'0 0.0
2016-Sep-29 07:34N 53°33' E 009°55'0 0.0
2016-Sep-29 00:33N 53°33' E 009°55'0 0.0
2016-Sep-28 21:33N 53°33' E 009°55'0 0.0
2016-Sep-28 19:34N 53°33' E 009°55'1 0.4
2016-Sep-28 16:34N 53°31' E 009°56'1 1.1
2016-Sep-28 15:34N 53°33' E 009°56'1 0.3
2016-Sep-28 12:34N 53°32' E 009°56'1 0.2
2016-Sep-28 08:34N 53°33' E 009°55'1 0.2
2016-Sep-28 03:34N 53°32' E 009°55'3 2.9
2016-Sep-28 02:33N 53°33' E 009°51'4 3.7
2016-Sep-28 01:34N 53°31' E 009°56'2 0.8
2016-Sep-27 23:34N 53°33' E 009°55'0 0.0
2016-Sep-27 19:34N 53°33' E 009°55'0 0.0
2016-Sep-27 14:33N 53°33' E 009°55'0 0.0
2016-Sep-27 13:34N 53°33' E 009°55'3 0.9
2016-Sep-27 10:34N 53°32' E 009°60'3 0.3
2016-Sep-27 00:34N 53°33' E 009°55'0 0.0
2016-Sep-26 20:34N 53°33' E 009°55'0 0.0
2016-Sep-26 19:34N 53°33' E 009°55'1 0.2
2016-Sep-26 15:34N 53°32' E 009°57'2 0.8
2016-Sep-26 13:34N 53°32' E 009°54'1 0.4
2016-Sep-26 11:34N 53°33' E 009°55'0 0.0
2016-Sep-26 08:34N 53°33' E 009°55'0 0.0
2016-Sep-26 02:34N 53°33' E 009°55'0 0.0
2016-Sep-26 01:34N 53°33' E 009°55'0 0.0
2016-Sep-26 00:34N 53°33' E 009°55'0 0.0
2016-Sep-25 21:34N 53°33' E 009°55'0 0.0
2016-Sep-25 17:34N 53°33' E 009°55'0 0.0
2016-Sep-25 16:34N 53°33' E 009°55'0 0.0
2016-Sep-25 15:34N 53°33' E 009°55'0 0.0
2016-Sep-25 14:34N 53°33' E 009°55'0 0.0
2016-Sep-25 12:33N 53°33' E 009°55'0 0.0
2016-Sep-25 11:34N 53°33' E 009°55'2 1.8
2016-Sep-25 10:33N 53°31' E 009°56'2 1.8
2016-Sep-25 09:33N 53°33' E 009°55'0 0.0
2016-Sep-25 07:34N 53°33' E 009°55'0 0.0
2016-Sep-25 04:34N 53°33' E 009°55'0 0.0
2016-Sep-25 00:34N 53°33' E 009°55'0 0.0
2016-Sep-24 22:34N 53°33' E 009°55'0 0.0
2016-Sep-24 21:34N 53°33' E 009°55'0 0.0
2016-Sep-24 19:34N 53°33' E 009°55'0 0.0
2016-Sep-24 18:34N 53°33' E 009°55'0 0.0
2016-Sep-24 17:34N 53°33' E 009°55'0 0.0
2016-Sep-24 16:34N 53°33' E 009°55'0 0.2
2016-Sep-24 14:34N 53°33' E 009°55'0 0.2
2016-Sep-24 12:34N 53°33' E 009°55'0 0.0
2016-Sep-24 10:34N 53°33' E 009°55'0 0.0
2016-Sep-24 09:34N 53°33' E 009°55'0 0.0
2016-Sep-24 03:34N 53°33' E 009°55'2 2.3
2016-Sep-24 02:34N 53°30' E 009°56'2 1.8
2016-Sep-24 01:34N 53°32' E 009°56'1 0.6
2016-Sep-24 00:33N 53°33' E 009°55'0 0.0
2016-Sep-23 19:33N 53°33' E 009°55'0 0.0
2016-Sep-23 17:34N 53°33' E 009°55'0 0.0
2016-Sep-23 16:34N 53°33' E 009°55'0 0.0
2016-Sep-23 15:34N 53°33' E 009°55'0 0.0
2016-Sep-23 13:34N 53°33' E 009°55'0 0.0
2016-Sep-23 09:34N 53°33' E 009°55'0 0.0
2016-Sep-23 06:34N 53°33' E 009°55'2 0.8
2016-Sep-23 04:34N 53°32' E 009°53'2 1.6
2016-Sep-23 03:34N 53°33' E 009°55'0 0.0
2016-Sep-23 02:34N 53°33' E 009°55'0 0.0
2016-Sep-23 01:34N 53°33' E 009°55'0 0.0
2016-Sep-23 00:34N 53°33' E 009°55'0 0.0
2016-Sep-22 23:34N 53°33' E 009°55'3 1.0
2016-Sep-22 20:33N 53°33' E 009°50'3 0.4
2016-Sep-22 12:34N 53°33' E 009°55'0 0.0
2016-Sep-22 04:33N 53°33' E 009°55'0 0.0
2016-Sep-22 03:33N 53°33' E 009°55'0 0.0
2016-Sep-22 00:34N 53°33' E 009°55'0 0.0
2016-Sep-21 23:34N 53°33' E 009°55'0 0.0
2016-Sep-21 22:34N 53°33' E 009°55'0 0.0
2016-Sep-21 19:34N 53°33' E 009°55'0 0.0
2016-Sep-21 16:34N 53°33' E 009°55'0 0.0
2016-Sep-21 09:34N 53°33' E 009°55'0 0.0
2016-Sep-21 08:33N 53°33' E 009°55'0 0.0
2016-Sep-21 05:34N 53°33' E 009°55'0 0.0
2016-Sep-21 03:33N 53°33' E 009°55'0 0.0
2016-Sep-21 02:34N 53°33' E 009°55'0 0.0
2016-Sep-20 17:34N 53°33' E 009°55'0 0.0
2016-Sep-20 14:34N 53°33' E 009°55'0 0.0
2016-Sep-20 13:34N 53°33' E 009°55'0 0.0
2016-Sep-20 10:34N 53°33' E 009°55'0 0.0
2016-Sep-20 08:34N 53°33' E 009°55'0 0.0
2016-Sep-20 07:34N 53°33' E 009°55'0 0.0
2016-Sep-20 06:34N 53°33' E 009°55'0 0.0
2016-Sep-20 02:34N 53°33' E 009°55'0 0.0
2016-Sep-19 23:34N 53°33' E 009°55'0 0.0
2016-Sep-19 19:34N 53°33' E 009°55'1 0.7
2016-Sep-19 18:34N 53°32' E 009°55'1 0.3
2016-Sep-19 16:34N 53°33' E 009°55'  
Track history (hours):
 
Tides and Currents Weather Stations Pressure Air Temp Water Temp Dewpoint Dewpoint Depression Visibility Wind Speed Wind Dir Waves Ship Positions

Maersk Douglas

Last reported at 2016-Sep-29 16:34 UTC. Time now 2016-Sep-29 18:42 UTC.
Position N 53°33' E 009°55'.

Length 294.1 m; beam 32.2 m; draft 13.7 m.

Type: Tug. MMSI: 211710650.

Date/timePositionNaut miles runAvg speedWind from/ knotsBaromVisibWave heightAir tempDewpointWater temp
2016-Sep-29 16:34N 53°33' E 009°55'0 0.0
2016-Sep-29 15:34N 53°33' E 009°55'0 0.0
2016-Sep-29 14:33N 53°33' E 009°55'2 1.8
2016-Sep-29 13:34N 53°33' E 009°52'2 0.4
2016-Sep-29 08:34N 53°33' E 009°55'0 0.0
2016-Sep-29 07:34N 53°33' E 009°55'0 0.0
2016-Sep-29 00:33N 53°33' E 009°55'0 0.0
2016-Sep-28 21:33N 53°33' E 009°55'0 0.0
2016-Sep-28 19:34N 53°33' E 009°55'1 0.4
2016-Sep-28 16:34N 53°31' E 009°56'1 1.1
2016-Sep-28 15:34N 53°33' E 009°56'1 0.3
2016-Sep-28 12:34N 53°32' E 009°56'1 0.2
2016-Sep-28 08:34N 53°33' E 009°55'1 0.2
2016-Sep-28 03:34N 53°32' E 009°55'3 2.9
2016-Sep-28 02:33N 53°33' E 009°51'4 3.7
2016-Sep-28 01:34N 53°31' E 009°56'2 0.8
2016-Sep-27 23:34N 53°33' E 009°55'0 0.0
2016-Sep-27 19:34N 53°33' E 009°55'0 0.0
2016-Sep-27 14:33N 53°33' E 009°55'0 0.0
2016-Sep-27 13:34N 53°33' E 009°55'3 0.9
2016-Sep-27 10:34N 53°32' E 009°60'3 0.3
2016-Sep-27 00:34N 53°33' E 009°55'0 0.0
2016-Sep-26 20:34N 53°33' E 009°55'0 0.0
2016-Sep-26 19:34N 53°33' E 009°55'1 0.2
2016-Sep-26 15:34N 53°32' E 009°57'2 0.8
2016-Sep-26 13:34N 53°32' E 009°54'1 0.4
2016-Sep-26 11:34N 53°33' E 009°55'0 0.0
2016-Sep-26 08:34N 53°33' E 009°55'0 0.0
2016-Sep-26 02:34N 53°33' E 009°55'0 0.0
2016-Sep-26 01:34N 53°33' E 009°55'0 0.0
2016-Sep-26 00:34N 53°33' E 009°55'0 0.0
2016-Sep-25 21:34N 53°33' E 009°55'0 0.0
2016-Sep-25 17:34N 53°33' E 009°55'0 0.0
2016-Sep-25 16:34N 53°33' E 009°55'0 0.0
2016-Sep-25 15:34N 53°33' E 009°55'0 0.0
2016-Sep-25 14:34N 53°33' E 009°55'0 0.0
2016-Sep-25 12:33N 53°33' E 009°55'0 0.0
2016-Sep-25 11:34N 53°33' E 009°55'2 1.8
2016-Sep-25 10:33N 53°31' E 009°56'2 1.8
2016-Sep-25 09:33N 53°33' E 009°55'0 0.0
2016-Sep-25 07:34N 53°33' E 009°55'0 0.0
2016-Sep-25 04:34N 53°33' E 009°55'0 0.0
2016-Sep-25 00:34N 53°33' E 009°55'0 0.0
2016-Sep-24 22:34N 53°33' E 009°55'0 0.0
2016-Sep-24 21:34N 53°33' E 009°55'0 0.0
2016-Sep-24 19:34N 53°33' E 009°55'0 0.0
2016-Sep-24 18:34N 53°33' E 009°55'0 0.0
2016-Sep-24 17:34N 53°33' E 009°55'0 0.0
2016-Sep-24 16:34N 53°33' E 009°55'0 0.2
2016-Sep-24 14:34N 53°33' E 009°55'0 0.2
2016-Sep-24 12:34N 53°33' E 009°55'0 0.0
2016-Sep-24 10:34N 53°33' E 009°55'0 0.0
2016-Sep-24 09:34N 53°33' E 009°55'0 0.0
2016-Sep-24 03:34N 53°33' E 009°55'2 2.3
2016-Sep-24 02:34N 53°30' E 009°56'2 1.8
2016-Sep-24 01:34N 53°32' E 009°56'1 0.6
2016-Sep-24 00:33N 53°33' E 009°55'0 0.0
2016-Sep-23 19:33N 53°33' E 009°55'0 0.0
2016-Sep-23 17:34N 53°33' E 009°55'0 0.0
2016-Sep-23 16:34N 53°33' E 009°55'0 0.0
2016-Sep-23 15:34N 53°33' E 009°55'0 0.0
2016-Sep-23 13:34N 53°33' E 009°55'0 0.0
2016-Sep-23 09:34N 53°33' E 009°55'0 0.0
2016-Sep-23 06:34N 53°33' E 009°55'2 0.8
2016-Sep-23 04:34N 53°32' E 009°53'2 1.6
2016-Sep-23 03:34N 53°33' E 009°55'0 0.0
2016-Sep-23 02:34N 53°33' E 009°55'0 0.0
2016-Sep-23 01:34N 53°33' E 009°55'0 0.0
2016-Sep-23 00:34N 53°33' E 009°55'0 0.0
2016-Sep-22 23:34N 53°33' E 009°55'3 1.0
2016-Sep-22 20:33N 53°33' E 009°50'3 0.4
2016-Sep-22 12:34N 53°33' E 009°55'0 0.0
2016-Sep-22 04:33N 53°33' E 009°55'0 0.0
2016-Sep-22 03:33N 53°33' E 009°55'0 0.0
2016-Sep-22 00:34N 53°33' E 009°55'0 0.0
2016-Sep-21 23:34N 53°33' E 009°55'0 0.0
2016-Sep-21 22:34N 53°33' E 009°55'0 0.0
2016-Sep-21 19:34N 53°33' E 009°55'0 0.0
2016-Sep-21 16:34N 53°33' E 009°55'0 0.0
2016-Sep-21 09:34N 53°33' E 009°55'0 0.0
2016-Sep-21 08:33N 53°33' E 009°55'0 0.0
2016-Sep-21 05:34N 53°33' E 009°55'0 0.0
2016-Sep-21 03:33N 53°33' E 009°55'0 0.0
2016-Sep-21 02:34N 53°33' E 009°55'0 0.0
2016-Sep-20 17:34N 53°33' E 009°55'0 0.0
2016-Sep-20 14:34N 53°33' E 009°55'0 0.0
2016-Sep-20 13:34N 53°33' E 009°55'0 0.0
2016-Sep-20 10:34N 53°33' E 009°55'0 0.0
2016-Sep-20 08:34N 53°33' E 009°55'0 0.0
2016-Sep-20 07:34N 53°33' E 009°55'0 0.0
2016-Sep-20 06:34N 53°33' E 009°55'0 0.0
2016-Sep-20 02:34N 53°33' E 009°55'0 0.0
2016-Sep-19 23:34N 53°33' E 009°55'0 0.0
2016-Sep-19 19:34N 53°33' E 009°55'1 0.7
2016-Sep-19 18:34N 53°32' E 009°55'1 0.3
2016-Sep-19 16:34N 53°33' E 009°55'  

Dump ship's entire track history